Time;durP1;ratioP1;P1;durP2;ratioP2;P2;SDS_P1;SDS_P2;PMS_P1;PMS_P2;Temp;Humidity;BMP_temperature;BMP_pressure;BME280_temperature;BME280_humidity;BME280_pressure;Samples;Min_cycle;Max_cycle;Signal;HPM_P1;HPM_P2
2021/03/08 00:00:20;;;;;;;18.48;11.80;;;;;;;1.83;64.26;98798.45;1685017;84;21236;-69
2021/03/08 00:02:49;;;;;;;18.52;12.00;;;;;;;1.82;64.34;98785.02;1682815;84;21661;-70
2021/03/08 00:05:16;;;;;;;16.15;10.80;;;;;;;1.83;64.31;98786.72;1683034;85;21633;-69
2021/03/08 00:07:45;;;;;;;16.70;11.40;;;;;;;1.79;64.44;98779.50;1682596;84;21197;-69
2021/03/08 00:10:15;;;;;;;19.40;11.60;;;;;;;1.84;64.41;98787.11;1709448;84;21594;-69
2021/03/08 00:12:44;;;;;;;18.00;11.20;;;;;;;1.79;64.48;98784.72;1711336;84;21166;-70
2021/03/08 00:15:13;;;;;;;16.45;10.58;;;;;;;1.79;64.51;98773.84;1710962;84;21368;-69
2021/03/08 00:17:41;;;;;;;18.67;11.50;;;;;;;1.75;64.57;98774.93;1710055;84;21638;-70
2021/03/08 00:20:13;;;;;;;20.08;11.28;;;;;;;1.77;64.58;98766.55;1711384;84;21643;-70
2021/03/08 00:22:42;;;;;;;15.55;10.78;;;;;;;1.78;64.54;98777.37;1711008;84;21213;-70
2021/03/08 00:25:19;;;;;;;19.30;11.83;;;;;;;1.80;64.60;98759.90;1711314;84;21202;-70
2021/03/08 00:27:47;;;;;;;18.17;11.12;;;;;;;1.82;64.56;98764.17;1708106;84;21717;-70
2021/03/08 00:30:16;;;;;;;17.87;11.53;;;;;;;1.78;64.64;98754.38;1710735;84;21162;-71
2021/03/08 00:32:43;;;;;;;17.87;11.20;;;;;;;1.83;64.50;98754.12;1711132;84;21190;-71
2021/03/08 00:35:12;;;;;;;16.40;11.35;;;;;;;1.77;64.54;98753.52;1711289;84;21631;-69
2021/03/08 00:37:40;;;;;;;20.45;10.93;;;;;;;1.82;64.52;98756.34;1711189;84;21222;-69
2021/03/08 00:40:16;;;;;;;16.23;10.55;;;;;;;1.77;64.62;98740.48;1706384;84;21218;-70
2021/03/08 00:42:44;;;;;;;18.27;11.03;;;;;;;1.74;64.73;98731.52;1706993;84;21310;-69
2021/03/08 00:45:18;;;;;;;15.40;10.35;;;;;;;1.79;64.70;98742.56;1707250;84;21202;-69
2021/03/08 00:47:47;;;;;;;19.00;11.85;;;;;;;1.79;64.77;98741.27;1707059;84;21195;-69
2021/03/08 00:50:19;;;;;;;15.90;10.25;;;;;;;1.80;64.76;98732.52;1689280;84;21194;-69
2021/03/08 00:52:47;;;;;;;17.23;11.50;;;;;;;1.77;64.85;98727.92;1682740;85;21182;-69
2021/03/08 00:55:15;;;;;;;17.07;11.22;;;;;;;1.83;64.80;98730.22;1682977;85;21567;-69
2021/03/08 00:57:43;;;;;;;19.87;11.93;;;;;;;1.79;64.81;98728.23;1698344;84;21208;-69
2021/03/08 01:00:14;;;;;;;18.20;12.18;;;;;;;1.82;64.84;98723.76;1711017;82;21218;-69
2021/03/08 01:02:44;;;;;;;;;;;;;;;1.80;64.91;98726.01;1713857;82;21202;-69
2021/03/08 01:05:15;;;;;;;17.30;11.43;;;;;;;1.83;64.88;98720.23;1711321;84;20150;-70
2021/03/08 01:07:43;;;;;;;14.50;10.63;;;;;;;1.76;64.97;98715.80;1711321;84;21626;-69
2021/03/08 01:10:17;;;;;;;18.05;11.28;;;;;;;1.73;65.09;98713.36;1691019;84;21150;-69
2021/03/08 01:12:45;;;;;;;15.58;9.73;;;;;;;1.76;65.05;98703.59;1690404;83;21151;-69
2021/03/08 01:15:14;;;;;;;20.27;11.95;;;;;;;1.74;65.12;98706.77;1714251;84;21190;-69
2021/03/08 01:17:41;;;;;;;21.25;11.45;;;;;;;1.78;65.22;98705.68;1713938;84;21206;-70
2021/03/08 01:20:13;;;;;;;20.02;12.18;;;;;;;1.73;65.20;98692.03;1693899;84;21218;-70
2021/03/08 01:22:42;;;;;;;19.92;11.73;;;;;;;1.74;65.18;98697.64;1685606;85;21848;-70
2021/03/08 01:25:20;;;;;;;17.37;11.95;;;;;;;1.71;65.28;98686.05;1685604;85;21630;-70
2021/03/08 01:27:47;;;;;;;16.77;11.97;;;;;;;1.74;65.32;98687.66;1685700;85;21198;-70
2021/03/08 01:30:19;;;;;;;19.40;11.80;;;;;;;1.72;65.35;98685.13;1707592;84;21170;-70
2021/03/08 01:32:46;;;;;;;19.20;11.43;;;;;;;1.74;65.41;98687.22;1698746;84;21154;-70
2021/03/08 01:35:14;;;;;;;18.07;12.33;;;;;;;1.79;65.29;98693.03;1709626;84;21161;-70
2021/03/08 01:37:41;;;;;;;17.87;11.50;;;;;;;1.75;65.35;98687.60;1709554;84;21185;-71
2021/03/08 01:40:13;;;;;;;17.52;10.88;;;;;;;1.79;65.25;98683.91;1719962;83;21191;-70
2021/03/08 01:42:41;;;;;;;16.70;11.45;;;;;;;1.75;65.40;98689.34;1693632;85;21707;-70
2021/03/08 01:45:11;;;;;;;17.00;11.30;;;;;;;1.77;65.45;98687.04;1714058;84;21178;-69
2021/03/08 01:47:40;;;;;;;16.48;10.85;;;;;;;1.71;65.50;98680.84;1714312;84;21163;-70
2021/03/08 01:50:12;;;;;;;14.75;10.30;;;;;;;1.70;65.56;98689.60;1696052;84;21719;-70
2021/03/08 01:52:39;;;;;;;17.12;11.83;;;;;;;1.70;65.70;98689.60;1698962;83;21147;-70
2021/03/08 01:55:08;;;;;;;18.27;12.05;;;;;;;1.70;65.71;98689.60;1697641;84;22211;-70
2021/03/08 02:00:25;;;;;;;18.82;11.78;;;;;;;1.71;65.77;98681.31;1756789;79;23655;-68
2021/03/08 02:02:53;;;;;;;19.17;11.85;;;;;;;1.69;65.70;98687.91;1723087;83;21162;-69
2021/03/08 02:05:32;;;;;;;18.27;12.25;;;;;;;1.66;65.87;98693.26;1723264;83;21174;-69
2021/03/08 02:08:01;;;;;;;19.57;11.73;;;;;;;1.66;65.84;98685.44;1722910;83;21199;-68
2021/03/08 02:10:29;;;;;;;19.05;12.03;;;;;;;1.63;65.90;98687.74;1722021;83;21145;-69
2021/03/08 02:13:21;;;;;;;18.65;12.25;;;;;;;1.65;65.96;98687.69;1723077;83;21191;-69
2021/03/08 02:16:23;;;;;;;16.97;10.78;;;;;;;1.63;66.00;98685.61;1722973;83;21165;-69
2021/03/08 02:19:22;;;;;;;18.73;12.45;;;;;;;1.68;65.92;98695.34;1718994;83;21315;-69
2021/03/08 02:22:18;;;;;;;18.05;11.68;;;;;;;1.66;65.87;98675.48;1694364;85;21211;-68
2021/03/08 02:25:13;;;;;;;19.00;12.18;;;;;;;1.66;65.87;98691.95;1693913;84;21182;-68
2021/03/08 02:28:36;;;;;;;21.02;12.80;;;;;;;1.64;65.95;98680.31;1928553;74;22871;-70
2021/03/08 02:31:09;;;;;;;19.45;11.88;;;;;;;1.64;65.91;98683.39;1917617;74;21264;-70
2021/03/08 02:33:37;;;;;;;18.45;12.10;;;;;;;1.59;65.94;98686.69;1791622;77;21447;-69
2021/03/08 02:36:07;;;;;;;18.17;11.70;;;;;;;1.60;65.95;98687.08;1828948;78;21172;-70
2021/03/08 02:38:38;;;;;;;20.88;12.05;;;;;;;1.58;65.98;98679.79;1825576;78;21156;-70
2021/03/08 02:41:18;;;;;;;18.70;12.07;;;;;;;1.60;65.98;98683.17;1797107;78;21121;-70
2021/03/08 02:43:49;;;;;;;17.95;11.78;;;;;;;1.60;65.98;98674.88;1859097;77;21108;-70
2021/03/08 02:46:29;;;;;;;19.98;11.75;;;;;;;1.63;65.92;98676.02;1859190;77;21201;-70
2021/03/08 02:49:01;;;;;;;17.35;11.08;;;;;;;1.64;65.94;98676.41;1830028;78;21622;-70
2021/03/08 02:51:31;;;;;;;19.23;11.53;;;;;;;1.66;65.93;98668.50;1831495;78;21533;-70
2021/03/08 02:54:00;;;;;;;19.07;11.63;;;;;;;1.68;65.94;98662.76;1833759;78;21156;-70
2021/03/08 02:56:34;;;;;;;19.82;12.00;;;;;;;1.65;66.02;98666.84;1833892;78;21153;-70
2021/03/08 02:59:04;;;;;;;19.57;11.35;;;;;;;1.69;65.99;98663.59;1827456;78;21589;-70
2021/03/08 03:01:34;;;;;;;17.07;11.43;;;;;;;1.67;66.04;98664.98;1795424;80;21133;-70
2021/03/08 03:04:03;;;;;;;18.02;12.18;;;;;;;1.69;66.11;98666.20;1769564;81;21141;-68
2021/03/08 03:06:32;;;;;;;18.17;11.97;;;;;;;1.67;66.15;98668.89;1739888;81;21133;-68
2021/03/08 03:09:04;;;;;;;17.48;11.38;;;;;;;1.69;66.15;98664.45;1739758;81;21156;-68
2021/03/08 03:11:31;;;;;;;17.00;10.98;;;;;;;1.69;66.18;98668.36;1771450;80;21351;-68
2021/03/08 03:13:58;;;;;;;18.40;11.65;;;;;;;1.66;66.50;98666.37;1715754;81;21159;-69
2021/03/08 03:16:27;;;;;;;16.57;11.12;;;;;;;1.70;66.67;98671.80;1739862;81;21171;-68
2021/03/08 03:18:57;;;;;;;17.25;10.85;;;;;;;1.64;67.45;98671.66;1741086;81;21584;-69
2021/03/08 03:21:29;;;;;;;18.50;11.30;;;;;;;1.59;68.04;98677.09;1752936;80;21613;-69
2021/03/08 03:23:56;;;;;;;18.23;11.50;;;;;;;1.51;68.69;98679.70;1801212;79;21132;-69
2021/03/08 03:26:24;;;;;;;19.85;12.37;;;;;;;1.47;69.10;98679.88;1801211;79;21180;-69
2021/03/08 03:28:51;;;;;;;21.57;12.23;;;;;;;1.44;69.35;98680.00;1801052;80;21306;-69
2021/03/08 03:31:20;;;;;;;18.05;12.37;;;;;;;1.44;69.75;98683.91;1794021;79;21125;-69
2021/03/08 03:33:48;;;;;;;18.55;11.55;;;;;;;1.43;70.22;98677.05;1770579;80;21173;-69
2021/03/08 03:36:15;;;;;;;20.72;12.70;;;;;;;1.38;70.53;98686.85;1801378;80;21636;-69
2021/03/08 03:38:43;;;;;;;19.98;11.88;;;;;;;1.39;70.72;98678.56;1800853;79;21513;-69
2021/03/08 03:41:11;;;;;;;17.23;11.00;;;;;;;1.31;71.15;98683.69;1769810;80;21167;-69
2021/03/08 03:43:38;;;;;;;18.42;12.03;;;;;;;1.40;70.95;98679.78;1790881;80;21158;-69
2021/03/08 03:46:06;;;;;;;20.15;13.00;;;;;;;1.38;71.13;98675.57;1825021;78;21152;-69
2021/03/08 03:48:34;;;;;;;17.73;11.05;;;;;;;1.29;71.46;98680.77;1820066;78;21134;-69
2021/03/08 03:51:01;;;;;;;17.87;11.30;;;;;;;1.28;71.52;98675.20;1824847;78;21166;-69
2021/03/08 03:53:29;;;;;;;17.65;12.00;;;;;;;1.40;71.31;98671.97;1823393;78;21850;-69
2021/03/08 03:55:56;;;;;;;20.05;12.88;;;;;;;1.38;71.33;98678.17;1824629;78;21162;-69
2021/03/08 03:58:43;;;;;;;17.00;11.43;;;;;;;1.31;71.39;98678.95;1824943;78;21579;-69
2021/03/08 04:01:17;;;;;;;19.52;11.80;;;;;;;1.33;71.41;98675.81;1824904;78;21122;-69
2021/03/08 04:04:17;;;;;;;17.70;11.60;;;;;;;1.37;71.27;98675.18;1824195;78;21147;-69
2021/03/08 04:06:56;;;;;;;21.45;13.05;;;;;;;1.41;71.17;98678.87;1778462;79;22952;-69
2021/03/08 04:09:25;;;;;;;19.62;12.75;;;;;;;1.38;71.04;98671.66;1752988;82;21182;-69
2021/03/08 04:11:54;;;;;;;19.25;12.45;;;;;;;1.37;71.11;98668.67;1752195;82;21195;-69
2021/03/08 04:14:23;;;;;;;18.92;11.68;;;;;;;1.41;70.85;98670.23;1753049;82;21179;-69
2021/03/08 04:16:55;;;;;;;20.20;13.43;;;;;;;1.36;70.74;98669.14;1752870;82;21163;-69
2021/03/08 04:19:30;;;;;;;17.92;10.90;;;;;;;1.41;70.50;98669.75;1753121;81;21200;-68
2021/03/08 04:22:03;;;;;;;20.85;12.45;;;;;;;1.36;70.49;98667.84;1749577;82;21282;-69
2021/03/08 04:24:32;;;;;;;19.45;12.07;;;;;;;1.36;70.52;98671.75;1723486;83;21208;-69
2021/03/08 04:27:05;;;;;;;18.25;12.63;;;;;;;1.31;70.69;98668.05;1723585;82;21158;-69
2021/03/08 04:29:42;;;;;;;20.62;12.03;;;;;;;1.32;70.83;98667.61;1723221;83;21316;-70
2021/03/08 04:32:11;;;;;;;18.67;11.80;;;;;;;1.30;71.00;98670.74;1728213;82;22109;-70
2021/03/08 04:34:40;;;;;;;19.05;12.13;;;;;;;1.27;71.14;98668.30;1724007;82;21179;-71
2021/03/08 04:37:08;;;;;;;19.10;12.65;;;;;;;1.25;71.37;98668.83;1753218;82;21207;-70
2021/03/08 04:39:38;;;;;;;21.35;12.20;;;;;;;1.25;71.45;98671.43;1752953;82;21147;-70
2021/03/08 04:42:06;;;;;;;21.55;12.43;;;;;;;1.25;71.52;98675.34;1730527;82;21925;-69
2021/03/08 04:44:36;;;;;;;21.48;12.73;;;;;;;1.23;71.61;98677.16;1723198;83;21654;-69
2021/03/08 04:47:03;;;;;;;18.50;12.00;;;;;;;1.28;71.59;98680.41;1723138;82;21151;-70
2021/03/08 04:49:34;;;;;;;17.15;11.70;;;;;;;1.25;71.83;98674.03;1695064;83;21182;-70
2021/03/08 04:52:03;;;;;;;18.25;11.63;;;;;;;1.29;71.83;98683.37;1722947;83;21198;-73
2021/03/08 04:54:30;;;;;;;19.15;11.48;;;;;;;1.25;72.05;98681.84;1725046;82;21199;-72
2021/03/08 04:56:58;;;;;;;21.37;12.47;;;;;;;1.28;72.11;98675.20;1723144;83;21186;-70
2021/03/08 04:59:25;;;;;;;19.45;12.40;;;;;;;1.35;72.16;98675.27;1710441;83;21214;-70
2021/03/08 05:01:54;;;;;;;22.25;12.60;;;;;;;1.30;72.39;98684.63;1695140;85;21674;-71
2021/03/08 05:04:22;;;;;;;17.23;10.85;;;;;;;1.26;72.52;98679.63;1695948;83;21186;-71
2021/03/08 05:06:49;;;;;;;19.75;11.73;;;;;;;1.31;72.45;98677.17;1677212;84;21169;-71
2021/03/08 05:09:16;;;;;;;19.17;11.63;;;;;;;1.44;72.21;98681.31;1705417;82;21539;-71
2021/03/08 05:11:45;;;;;;;18.02;11.40;;;;;;;1.40;72.25;98682.39;1701992;83;21626;-71
2021/03/08 05:14:18;;;;;;;18.50;11.08;;;;;;;1.34;72.31;98685.30;1709969;83;21539;-70
2021/03/08 05:16:47;;;;;;;16.05;10.68;;;;;;;1.32;72.41;98687.15;1730756;83;21186;-70
2021/03/08 05:19:15;;;;;;;19.65;11.55;;;;;;;1.44;72.07;98693.03;1730527;83;21324;-70
2021/03/08 05:21:43;;;;;;;19.82;12.25;;;;;;;1.43;72.17;98687.91;1730646;83;21599;-70
2021/03/08 05:24:11;;;;;;;20.05;10.98;;;;;;;1.39;72.17;98692.89;1725051;83;21111;-70
2021/03/08 05:26:39;;;;;;;16.07;10.20;;;;;;;1.34;72.22;98695.71;1701526;84;21142;-70
2021/03/08 05:29:07;;;;;;;20.10;12.30;;;;;;;1.46;71.91;98685.16;1701638;84;21161;-70
2021/03/08 05:31:39;;;;;;;22.67;12.98;;;;;;;1.50;71.84;98697.55;1701445;84;21186;-70
2021/03/08 05:34:07;;;;;;;20.75;11.68;;;;;;;1.41;71.97;98690.59;1701323;84;21163;-70
2021/03/08 05:36:40;;;;;;;19.20;11.40;;;;;;;1.37;72.18;98692.98;1704386;83;21185;-70
2021/03/08 05:39:08;;;;;;;19.48;12.78;;;;;;;1.41;72.09;98707.53;1701817;84;21194;-71
2021/03/08 05:41:56;;;;;;;18.75;11.83;;;;;;;1.53;71.85;98706.54;1653436;84;21194;-70
2021/03/08 05:44:26;;;;;;;22.17;12.60;;;;;;;1.49;71.98;98714.97;1701963;84;21234;-69
2021/03/08 05:47:05;;;;;;;17.40;11.57;;;;;;;1.37;72.20;98718.16;1724862;83;21182;-69
2021/03/08 05:50:04;;;;;;;17.87;11.03;;;;;;;1.35;72.31;98716.94;1717985;83;21122;-70
2021/03/08 05:53:18;;;;;;;16.85;10.40;;;;;;;1.26;72.66;98716.10;1702007;84;21598;-69
2021/03/08 05:56:15;;;;;;;9.73;6.30;;;;;;;1.11;73.14;98727.66;1701837;84;21271;-70
2021/03/08 05:59:37;;;;;;;5.20;3.75;;;;;;;1.01;71.52;98739.42;1701935;83;21611;-70
2021/03/08 06:02:12;;;;;;;6.22;4.00;;;;;;;0.78;67.84;98753.48;1701545;84;21166;-71
2021/03/08 06:05:13;;;;;;;7.12;3.60;;;;;;;0.57;67.78;98745.76;1695683;84;21205;-71
2021/03/08 06:08:04;;;;;;;6.85;4.37;;;;;;;0.52;67.84;98750.33;1702119;83;21183;-71
2021/03/08 06:10:34;;;;;;;5.80;3.30;;;;;;;0.48;67.60;98761.32;1680189;84;21171;-71
2021/03/08 06:13:10;;;;;;;6.20;3.00;;;;;;;0.38;67.58;98765.25;1684693;85;21172;-71
2021/03/08 06:15:37;;;;;;;4.37;2.75;;;;;;;0.36;67.71;98769.69;1704928;84;21723;-72
2021/03/08 06:18:07;;;;;;;4.37;2.50;;;;;;;0.39;67.54;98776.52;1687773;84;21654;-72
2021/03/08 06:20:36;;;;;;;5.00;2.90;;;;;;;0.37;66.95;98779.19;1712757;84;21631;-70
2021/03/08 06:23:03;;;;;;;5.37;2.85;;;;;;;0.39;67.20;98781.25;1713137;84;21214;-70
2021/03/08 06:25:31;;;;;;;6.05;2.87;;;;;;;0.36;67.25;98789.64;1712891;84;21195;-70
2021/03/08 06:27:58;;;;;;;6.40;2.85;;;;;;;0.39;67.19;98798.63;1701346;84;21147;-71
2021/03/08 06:30:26;;;;;;;5.28;3.20;;;;;;;0.37;67.24;98794.80;1686298;84;21631;-72
2021/03/08 06:32:54;;;;;;;5.87;3.00;;;;;;;0.41;67.55;98800.69;1684366;85;21202;-72
2021/03/08 06:35:22;;;;;;;4.80;3.12;;;;;;;0.45;67.52;98800.49;1684608;84;21194;-72
2021/03/08 06:37:49;;;;;;;4.42;2.50;;;;;;;0.52;67.20;98802.83;1685235;84;21197;-71
2021/03/08 06:40:18;;;;;;;5.28;2.40;;;;;;;0.49;65.76;98807.24;1690788;84;21182;-71
2021/03/08 06:42:46;;;;;;;4.75;2.27;;;;;;;0.49;64.45;98809.84;1705793;84;21155;-71
2021/03/08 06:45:14;;;;;;;4.08;2.20;;;;;;;0.41;64.27;98804.14;1700283;84;21167;-71
2021/03/08 06:47:41;;;;;;;5.72;2.62;;;;;;;0.36;64.38;98806.11;1682552;84;21161;-71
2021/03/08 06:50:11;;;;;;;3.67;2.15;;;;;;;0.34;64.77;98810.98;1659872;84;21154;-71
2021/03/08 06:52:43;;;;;;;3.77;2.00;;;;;;;0.27;64.22;98818.19;1688550;84;21279;-71
2021/03/08 06:55:11;;;;;;;4.60;2.67;;;;;;;0.26;64.90;98812.63;1653031;86;21154;-71
2021/03/08 06:57:39;;;;;;;4.58;2.40;;;;;;;0.28;65.14;98822.48;1677824;84;21204;-71
2021/03/08 07:00:10;;;;;;;4.42;2.62;;;;;;;0.34;64.92;98810.98;1691776;84;21175;-71
2021/03/08 07:02:45;;;;;;;4.30;2.47;;;;;;;0.36;64.94;98808.70;1693332;84;21167;-72
2021/03/08 07:05:17;;;;;;;6.08;2.45;;;;;;;0.41;64.32;98814.98;1688347;84;21218;-72
2021/03/08 07:07:57;;;;;;;3.45;2.30;;;;;;;0.40;64.67;98818.06;1693040;84;21195;-72
2021/03/08 07:10:36;;;;;;;4.00;2.00;;;;;;;0.45;63.64;98810.89;1700486;84;21588;-71
2021/03/08 07:13:08;;;;;;;3.30;1.90;;;;;;;0.49;63.42;98812.44;1696754;84;21171;-72
2021/03/08 07:15:58;;;;;;;4.70;2.10;;;;;;;0.49;62.71;98815.05;1686918;84;21196;-72
2021/03/08 07:18:27;;;;;;;3.08;1.72;;;;;;;0.47;62.81;98815.59;1693795;84;21172;-72
2021/03/08 07:21:17;;;;;;;3.50;2.00;;;;;;;0.40;62.65;98829.77;1704435;83;21163;-72
2021/03/08 07:23:49;;;;;;;2.92;1.90;;;;;;;0.42;62.71;98821.45;1670825;84;21131;-72
2021/03/08 07:26:22;;;;;;;3.65;2.00;;;;;;;0.44;62.74;98821.38;1691871;84;21191;-72
2021/03/08 07:29:11;;;;;;;3.33;1.87;;;;;;;0.48;63.04;98815.95;1681210;85;21120;-72
2021/03/08 07:31:49;;;;;;;3.70;2.25;;;;;;;0.47;62.45;98821.23;1680770;85;21624;-72
2021/03/08 07:34:19;;;;;;;7.25;2.17;;;;;;;0.56;62.71;98822.59;1680440;84;21615;-72
2021/03/08 07:37:00;;;;;;;5.60;2.12;;;;;;;0.68;63.13;98829.86;1699248;84;21568;-72
2021/03/08 07:39:28;;;;;;;3.00;1.87;;;;;;;0.77;62.75;98826.84;1696248;84;21179;-71
2021/03/08 07:42:01;;;;;;;2.77;1.72;;;;;;;0.87;62.37;98831.18;1707642;84;21750;-71
2021/03/08 07:44:30;;;;;;;4.20;2.33;;;;;;;0.88;61.40;98819.00;1707476;83;21512;-70
2021/03/08 07:46:59;;;;;;;4.83;2.80;;;;;;;0.91;61.74;98826.22;1693898;84;21175;-70
2021/03/08 07:49:36;;;;;;;3.02;1.87;;;;;;;0.89;61.26;98824.12;1709816;84;21123;-71
2021/03/08 07:52:12;;;;;;;3.52;1.95;;;;;;;0.89;61.64;98828.03;1695994;83;21135;-71
2021/03/08 07:55:00;;;;;;;3.20;2.15;;;;;;;0.89;61.51;98849.33;1705773;84;21202;-71
2021/03/08 07:57:30;;;;;;;4.65;2.47;;;;;;;0.99;61.86;98842.78;1687749;84;21206;-71
2021/03/08 07:59:59;;;;;;;2.52;1.90;;;;;;;1.06;61.62;98833.79;1686857;84;21131;-71
2021/03/08 08:02:26;;;;;;;4.17;1.82;;;;;;;1.18;60.94;98840.19;1689018;84;21151;-72
2021/03/08 08:04:56;;;;;;;3.47;1.90;;;;;;;1.30;60.53;98826.59;1695391;84;21187;-71
2021/03/08 08:07:26;;;;;;;3.77;1.90;;;;;;;1.43;59.72;98826.86;1708787;83;21147;-71
2021/03/08 08:09:53;;;;;;;4.10;2.00;;;;;;;1.55;58.89;98831.94;1698124;84;21519;-71
2021/03/08 08:15:07;;;;;;;4.53;2.00;;;;;;;1.85;57.53;98820.92;1778653;79;22651;-72
2021/03/08 08:17:35;;;;;;;3.05;1.87;;;;;;;1.95;56.47;98814.80;1730733;82;21175;-72
2021/03/08 08:20:06;;;;;;;3.60;1.70;;;;;;;2.13;56.43;98819.55;1644636;85;21173;-72
2021/03/08 08:22:34;;;;;;;3.70;2.12;;;;;;;2.23;52.68;98826.45;1704492;84;21188;-72
2021/03/08 08:25:04;;;;;;;5.50;3.30;;;;;;;2.13;51.51;98820.37;1692226;84;21190;-71
2021/03/08 08:27:32;;;;;;;1.60;1.50;;;;;;;1.96;51.92;98832.14;1655733;85;21190;-72
2021/03/08 08:30:04;;;;;;;3.72;1.67;;;;;;;1.97;53.00;98812.97;1685835;85;21187;-72
2021/03/08 08:32:55;;;;;;;2.25;1.50;;;;;;;2.05;52.07;98813.89;1700772;84;21637;-72
2021/03/08 08:35:31;;;;;;;1.85;1.50;;;;;;;2.12;51.98;98814.80;1693488;84;21604;-72
2021/03/08 08:38:11;;;;;;;;;;;;;;;2.04;48.66;98809.59;1708033;84;21636;-72
2021/03/08 08:40:39;;;;;;;3.92;1.60;;;;;;;1.87;50.62;98824.78;1695754;84;20188;-72
2021/03/08 08:43:21;;;;;;;3.55;2.00;;;;;;;1.77;52.11;98818.69;1688286;84;21527;-72
2021/03/08 08:45:52;;;;;;;2.37;1.62;;;;;;;1.87;52.33;98823.47;1701392;84;21182;-72
2021/03/08 08:48:21;;;;;;;5.12;1.90;;;;;;;2.00;51.80;98823.70;1684414;84;21603;-71
2021/03/08 08:50:55;;;;;;;4.85;2.08;;;;;;;2.06;50.50;98824.23;1683274;84;21151;-72
2021/03/08 08:53:40;;;;;;;3.55;2.00;;;;;;;2.06;51.09;98822.93;1699817;84;21166;-72
2021/03/08 08:56:09;;;;;;;2.58;1.70;;;;;;;2.22;52.17;98827.37;1701283;84;21457;-71
2021/03/08 08:58:48;;;;;;;3.37;1.80;;;;;;;2.39;51.05;98814.31;1656075;85;21199;-71
2021/03/08 09:04:08;;;;;;;2.08;1.37;;;;;;;2.66;50.22;98820.32;1813224;79;23171;-71
2021/03/08 09:06:56;;;;;;;3.00;1.82;;;;;;;2.74;47.25;98827.75;1720446;83;21155;-72
2021/03/08 09:09:36;;;;;;;4.15;2.10;;;;;;;2.82;48.69;98824.73;1750746;82;21174;-72
2021/03/08 09:12:08;;;;;;;2.67;1.55;;;;;;;2.97;47.82;98830.88;1714101;83;21151;-73
2021/03/08 09:14:47;;;;;;;1.70;1.57;;;;;;;2.91;44.85;98820.31;1720029;83;21195;-73
2021/03/08 09:17:28;;;;;;;2.65;1.60;;;;;;;2.73;46.25;98819.05;1712079;83;21615;-72
2021/03/08 09:20:02;;;;;;;3.08;1.70;;;;;;;2.69;47.26;98816.23;1720493;83;21152;-73
2021/03/08 09:22:37;;;;;;;3.58;1.90;;;;;;;2.81;48.36;98825.17;1722939;83;21214;-73
2021/03/08 09:25:15;;;;;;;1.80;1.50;;;;;;;2.88;46.77;98833.07;1705401;84;21120;-72
2021/03/08 09:27:50;;;;;;;3.10;1.60;;;;;;;2.73;44.45;98832.11;1719529;83;21216;-72
2021/03/08 09:30:23;;;;;;;2.55;1.60;;;;;;;2.62;44.37;98831.83;1729662;83;21195;-73
2021/03/08 09:33:05;;;;;;;2.77;1.70;;;;;;;2.51;43.47;98840.70;1721350;83;21974;-74
2021/03/08 09:35:44;;;;;;;3.17;1.87;;;;;;;2.53;44.75;98854.50;1706729;84;21202;-72
2021/03/08 09:38:16;;;;;;;3.17;1.75;;;;;;;2.59;46.06;98854.19;1733214;82;21163;-72
2021/03/08 09:40:50;;;;;;;7.42;4.80;;;;;;;2.82;46.97;98848.23;1719382;83;21181;-72
2021/03/08 09:43:32;;;;;;;11.33;6.72;;;;;;;3.05;46.00;98837.38;1721791;83;21722;-72
2021/03/08 09:46:08;;;;;;;3.87;1.87;;;;;;;3.21;46.29;98846.99;1711866;83;21143;-72
2021/03/08 09:48:41;;;;;;;2.70;1.90;;;;;;;3.46;46.02;98841.74;1735199;82;21299;-72
2021/03/08 09:51:16;;;;;;;4.40;1.80;;;;;;;3.63;45.29;98848.16;1708037;84;21195;-73
2021/03/08 09:53:48;;;;;;;1.95;1.55;;;;;;;3.60;43.42;98843.11;1693206;85;21560;-73
2021/03/08 09:56:18;;;;;;;2.77;1.60;;;;;;;3.54;43.89;98842.14;1708703;84;21154;-73
2021/03/08 09:58:46;;;;;;;2.25;1.40;;;;;;;3.50;42.13;98841.94;1709886;83;21178;-72
2021/03/08 10:01:20;;;;;;;2.10;1.45;;;;;;;3.34;42.38;98836.27;1705116;84;21210;-73
2021/03/08 10:03:49;;;;;;;1.87;1.50;;;;;;;3.17;42.49;98838.95;1698968;84;21668;-72
2021/03/08 10:06:28;;;;;;;1.85;1.42;;;;;;;3.02;42.32;98836.69;1689522;84;21357;-73
2021/03/08 10:08:57;;;;;;;2.83;1.80;;;;;;;2.92;43.53;98848.95;1688624;84;21178;-73
2021/03/08 10:11:28;;;;;;;4.40;2.12;;;;;;;3.06;43.52;98842.98;1719432;83;21190;-73
2021/03/08 10:13:56;;;;;;;3.27;1.92;;;;;;;3.25;44.28;98840.70;1696126;84;21222;-72
2021/03/08 10:16:25;;;;;;;3.27;1.50;;;;;;;3.48;44.30;98843.79;1695073;84;21654;-72
2021/03/08 10:18:53;;;;;;;4.28;2.22;;;;;;;3.51;43.01;98841.02;1673511;84;21177;-73
2021/03/08 10:21:21;;;;;;;3.27;2.10;;;;;;;3.39;41.92;98839.46;1685767;85;21190;-72
2021/03/08 10:23:49;;;;;;;2.62;1.90;;;;;;;3.33;41.28;98846.33;1692628;84;21163;-73
2021/03/08 10:26:18;;;;;;;1.80;1.42;;;;;;;3.33;42.96;98846.33;1699106;84;21907;-73
2021/03/08 10:28:52;;;;;;;1.75;1.30;;;;;;;3.37;42.66;98853.07;1680079;84;21229;-72
2021/03/08 10:31:24;;;;;;;2.30;1.72;;;;;;;3.32;41.17;98848.56;1689258;83;21174;-72
2021/03/08 10:34:10;;;;;;;2.42;1.60;;;;;;;3.19;42.43;98847.56;1706184;84;21631;-73
2021/03/08 10:36:39;;;;;;;1.75;1.45;;;;;;;3.30;41.76;98841.73;1706261;84;21320;-72
2021/03/08 10:39:11;;;;;;;1.85;1.40;;;;;;;3.47;40.62;98840.34;1716817;83;21282;-73
2021/03/08 10:41:40;;;;;;;12.90;7.17;;;;;;;3.55;42.05;98835.99;1705743;83;21183;-72
2021/03/08 10:44:09;;;;;;;3.70;2.12;;;;;;;3.63;41.65;98835.08;1661620;85;21194;-73
2021/03/08 10:46:38;;;;;;;5.35;2.40;;;;;;;3.60;41.65;98831.34;1662273;84;21190;-72
2021/03/08 10:49:08;;;;;;;5.90;2.87;;;;;;;3.48;40.21;98840.73;1704405;84;21189;-73
2021/03/08 10:51:39;;;;;;;3.98;2.65;;;;;;;3.27;40.35;98833.59;1686413;84;21165;-73
2021/03/08 10:54:09;;;;;;;1.75;1.50;;;;;;;3.10;39.71;98823.60;1704206;84;21210;-73
2021/03/08 10:56:39;;;;;;;2.65;1.85;;;;;;;2.94;39.89;98848.42;1700529;84;22198;-72
2021/03/08 10:59:28;;;;;;;2.60;1.45;;;;;;;2.86;41.02;98841.44;1697466;84;21111;-71
2021/03/08 11:02:07;;;;;;;2.17;1.50;;;;;;;2.78;41.81;98839.70;1683529;84;21225;-72
2021/03/08 11:04:34;;;;;;;1.70;1.60;;;;;;;2.72;41.17;98846.08;1681254;84;21174;-71
2021/03/08 11:07:03;;;;;;;2.17;1.45;;;;;;;2.69;42.02;98839.73;1697197;84;21567;-71
2021/03/08 11:09:36;;;;;;;2.08;1.55;;;;;;;2.73;41.70;98845.16;1678708;85;21606;-70
2021/03/08 11:12:05;;;;;;;3.92;1.60;;;;;;;2.76;41.44;98839.80;1698688;84;21198;-71
2021/03/08 11:14:54;;;;;;;3.98;2.27;;;;;;;2.73;40.85;98841.72;1693744;84;21174;-72
2021/03/08 11:17:40;;;;;;;5.80;2.80;;;;;;;2.71;41.75;98832.67;1682462;84;21734;-71
2021/03/08 11:20:23;;;;;;;8.03;4.08;;;;;;;2.71;41.14;98830.06;1702833;84;21216;-72
2021/03/08 11:23:02;;;;;;;13.83;3.67;;;;;;;2.77;41.20;98835.41;1692632;84;21201;-73
2021/03/08 11:25:43;;;;;;;11.68;3.47;;;;;;;2.85;42.27;98830.63;1685512;84;21183;-72
2021/03/08 11:28:15;;;;;;;7.60;2.47;;;;;;;2.98;42.38;98829.95;1696047;84;21332;-71
2021/03/08 11:30:46;;;;;;;4.23;2.53;;;;;;;3.05;42.39;98833.46;1697907;84;21377;-71
2021/03/08 11:33:13;;;;;;;3.20;1.80;;;;;;;3.10;42.82;98830.61;1696734;84;21352;-71
2021/03/08 11:35:41;;;;;;;2.42;1.50;;;;;;;3.10;42.00;98831.44;1678641;85;21615;-71
2021/03/08 11:38:14;;;;;;;1.67;1.57;;;;;;;3.20;42.25;98833.58;1692571;84;21158;-71
2021/03/08 11:40:45;;;;;;;3.70;1.85;;;;;;;3.24;41.16;98825.46;1687342;84;21293;-71
2021/03/08 11:43:18;;;;;;;2.47;1.70;;;;;;;3.18;40.59;98824.97;1704521;82;21165;-71
2021/03/08 11:45:45;;;;;;;2.27;1.80;;;;;;;3.22;41.81;98830.39;1707223;84;21119;-71
2021/03/08 11:48:13;;;;;;;4.83;2.20;;;;;;;3.38;42.29;98828.63;1706946;84;21206;-71
2021/03/08 11:50:40;;;;;;;3.37;2.00;;;;;;;3.50;40.78;98837.55;1707274;84;21178;-71
2021/03/08 11:53:10;;;;;;;3.00;1.80;;;;;;;3.37;41.37;98831.33;1705187;84;21303;-71
2021/03/08 11:55:38;;;;;;;4.45;1.87;;;;;;;3.39;42.71;98837.30;1706937;84;21186;-73
2021/03/08 11:58:05;;;;;;;2.95;2.10;;;;;;;3.51;42.20;98839.71;1707214;84;21555;-71
2021/03/08 12:00:32;;;;;;;2.60;1.60;;;;;;;3.50;42.00;98838.02;1707295;84;21666;-71
2021/03/08 12:03:00;;;;;;;2.12;1.70;;;;;;;3.37;41.21;98843.09;1708310;84;21213;-72
2021/03/08 12:05:29;;;;;;;2.52;1.67;;;;;;;3.08;41.44;98854.21;1712652;84;21194;-71
2021/03/08 12:07:58;;;;;;;2.27;1.55;;;;;;;2.79;41.87;98844.84;1709515;84;21210;-72